Aviation Digital Data Service (ADDS)

Output produced by METARs form (2109 UTC 24 March 2019)
found at http://www.aviationweather.gov/metar/data/
 
TAF MPPA 241600Z 2418/2524 01008KT 9999 FEW018 SCT090 
     BECMG 2419/2423 01014KT FEW018
       
TAF MPDA 241600Z 2418/2506 03012KT CAVOK 
     BECMG 2419/2423 19006KT
       
TAF MPMG 241600Z 2418/2506 34008KT 9999 FEW018 SCT090 
     BECMG 2419/2423 33014KT FEW020
       
TAF MPTO 241600Z 2418/2524 36010KT 9999 SCT020 SCT090 
     BECMG 2423/2503 02006KT 
     BECMG 2508/2512 VRB02KT